createdAt,value
2022-08-28T00:01:31.073Z,2.55
2022-08-28T00:03:02.817Z,2.44
2022-08-28T00:04:34.674Z,2.44
2022-08-28T00:06:06.018Z,2.96
2022-08-28T00:07:37.500Z,2.70
2022-08-28T00:09:08.888Z,2.69
2022-08-28T00:10:42.870Z,2.77
2022-08-28T00:12:14.396Z,3.01
2022-08-28T00:13:45.952Z,2.52
2022-08-28T00:15:17.419Z,2.54
2022-08-28T00:16:48.858Z,2.83
2022-08-28T00:18:20.508Z,2.88
2022-08-28T00:19:52.015Z,2.78
2022-08-28T00:21:23.360Z,3.03
2022-08-28T00:22:55.089Z,3.06
2022-08-28T00:24:26.493Z,3.25
2022-08-28T00:25:57.898Z,2.93
2022-08-28T00:27:30.294Z,3.06
2022-08-28T00:29:01.700Z,2.70
2022-08-28T00:30:33.430Z,2.65
2022-08-28T00:32:04.840Z,2.99
2022-08-28T00:33:36.245Z,2.75
2022-08-28T00:35:07.548Z,3.43
2022-08-28T00:36:39.786Z,3.29
2022-08-28T00:38:11.284Z,3.39
2022-08-28T00:39:42.867Z,3.21
2022-08-28T00:41:15.425Z,3.16
2022-08-28T00:42:46.918Z,3.72
2022-08-28T00:44:18.271Z,3.08
2022-08-28T00:45:49.691Z,3.74
2022-08-28T00:47:21.180Z,3.04
2022-08-28T00:48:52.724Z,3.35
2022-08-28T00:50:24.215Z,3.59
2022-08-28T00:51:55.607Z,3.39
2022-08-28T00:53:29.076Z,3.46
2022-08-28T00:55:04.744Z,3.29
2022-08-28T00:56:36.116Z,3.10
2022-08-28T00:58:07.395Z,3.19
2022-08-28T00:59:38.723Z,3.43
2022-08-28T01:01:10.015Z,3.37
2022-08-28T01:02:41.542Z,3.21
2022-08-28T01:04:12.988Z,3.43
2022-08-28T01:05:44.659Z,3.18
2022-08-28T01:07:16.293Z,3.35
2022-08-28T01:08:49.849Z,3.42
2022-08-28T01:10:22.152Z,3.38
2022-08-28T01:11:53.490Z,3.46
2022-08-28T01:13:25.001Z,3.52
2022-08-28T01:14:56.584Z,3.53
2022-08-28T01:16:28.383Z,3.75
2022-08-28T01:18:08.038Z,3.66
2022-08-28T01:19:40.285Z,3.57
2022-08-28T01:21:11.898Z,3.50
2022-08-28T01:22:52.203Z,3.43
2022-08-28T01:24:23.549Z,3.86
2022-08-28T01:25:54.949Z,3.64
2022-08-28T01:27:26.641Z,3.73
2022-08-28T01:28:58.413Z,3.68
2022-08-28T01:30:29.760Z,3.67
2022-08-28T01:32:01.077Z,3.90
2022-08-28T01:33:32.449Z,3.62
2022-08-28T01:35:03.766Z,3.72
2022-08-28T01:36:35.147Z,3.93
2022-08-28T01:38:06.483Z,3.85
2022-08-28T01:39:37.786Z,3.99
2022-08-28T01:41:09.215Z,4.11
2022-08-28T01:42:40.712Z,3.74
2022-08-28T01:44:12.035Z,3.90
2022-08-28T01:45:45.357Z,4.32
2022-08-28T01:47:16.852Z,4.17
2022-08-28T01:48:48.381Z,3.97
2022-08-28T01:50:19.724Z,3.85
2022-08-28T01:51:51.295Z,3.90
2022-08-28T01:53:26.332Z,4.57
2022-08-28T01:55:05.103Z,4.04
2022-08-28T01:56:36.811Z,4.14
2022-08-28T01:58:08.210Z,4.47
2022-08-28T01:59:39.530Z,4.17
2022-08-28T02:01:12.489Z,4.45
2022-08-28T02:02:43.832Z,3.90
2022-08-28T02:04:15.235Z,3.69
2022-08-28T02:05:46.651Z,4.28
2022-08-28T02:07:18.130Z,4.60
2022-08-28T02:08:49.474Z,4.30
2022-08-28T02:10:20.950Z,4.16
2022-08-28T02:11:52.557Z,4.14
2022-08-28T02:13:25.677Z,4.34
2022-08-28T02:14:57.191Z,4.48
2022-08-28T02:16:28.630Z,4.19
2022-08-28T02:17:59.975Z,4.25
2022-08-28T02:19:31.420Z,4.41
2022-08-28T02:21:02.821Z,4.62
2022-08-28T02:22:34.270Z,4.42
2022-08-28T02:24:05.692Z,4.14
2022-08-28T02:25:37.129Z,4.44
2022-08-28T02:27:08.906Z,4.43
2022-08-28T02:28:40.322Z,4.68
2022-08-28T02:30:11.609Z,4.42
2022-08-28T02:31:43.009Z,4.70
2022-08-28T02:33:14.414Z,4.62
2022-08-28T02:34:46.027Z,4.70
2022-08-28T02:36:17.417Z,4.78
2022-08-28T02:37:48.891Z,4.70
2022-08-28T02:39:20.298Z,4.80
2022-08-28T02:40:51.869Z,4.57
2022-08-28T02:42:23.158Z,4.97
2022-08-28T02:43:54.538Z,4.92
2022-08-28T02:45:25.920Z,4.90
2022-08-28T02:46:58.391Z,4.75
2022-08-28T02:48:29.796Z,4.73
2022-08-28T02:50:01.177Z,4.32
2022-08-28T02:51:32.526Z,4.59
2022-08-28T02:53:03.806Z,4.48
2022-08-28T02:54:35.095Z,4.55
2022-08-28T02:56:06.525Z,4.06
2022-08-28T02:57:38.056Z,4.31
2022-08-28T02:59:09.710Z,4.56
2022-08-28T03:00:41.040Z,4.47
2022-08-28T03:02:12.494Z,4.32
2022-08-28T03:03:43.994Z,4.37
2022-08-28T03:05:15.575Z,4.41
2022-08-28T03:06:47.044Z,4.40
2022-08-28T03:08:18.332Z,4.17
2022-08-28T03:09:49.852Z,4.22
2022-08-28T03:11:21.356Z,4.27
2022-08-28T03:12:52.999Z,4.51
2022-08-28T03:14:24.257Z,4.53
2022-08-28T03:15:55.974Z,4.30
2022-08-28T03:17:27.700Z,4.54
2022-08-28T03:18:59.132Z,4.51
2022-08-28T03:20:30.530Z,4.36
2022-08-28T03:22:01.904Z,4.51
2022-08-28T03:23:33.281Z,4.26
2022-08-28T03:25:04.645Z,3.90
2022-08-28T03:26:36.036Z,3.96
2022-08-28T03:28:07.435Z,4.39
2022-08-28T03:29:38.749Z,4.44
2022-08-28T03:31:10.147Z,4.39
2022-08-28T03:32:41.496Z,4.64
2022-08-28T03:34:13.050Z,4.23
2022-08-28T03:35:44.672Z,4.68
2022-08-28T03:37:16.070Z,4.53
2022-08-28T03:38:47.373Z,4.22
2022-08-28T03:40:18.932Z,4.64
2022-08-28T03:41:50.841Z,4.54
2022-08-28T03:43:22.317Z,4.44
2022-08-28T03:44:53.833Z,3.99
2022-08-28T03:46:25.259Z,4.50
2022-08-28T03:47:56.570Z,4.22
2022-08-28T03:49:29.223Z,4.30
2022-08-28T03:51:01.332Z,4.46
2022-08-28T03:52:32.995Z,4.24
2022-08-28T03:54:05.224Z,4.49
2022-08-28T03:55:36.624Z,4.49
2022-08-28T03:57:07.870Z,4.54
2022-08-28T03:58:39.168Z,4.42
2022-08-28T04:00:10.605Z,4.42
2022-08-28T04:01:41.967Z,4.37
2022-08-28T04:03:13.623Z,4.79
2022-08-28T04:04:45.051Z,4.44
2022-08-28T04:06:16.410Z,4.32
2022-08-28T04:07:47.729Z,4.63
2022-08-28T04:09:19.194Z,4.45
2022-08-28T04:10:50.565Z,4.90
2022-08-28T04:12:21.966Z,4.28
2022-08-28T04:13:53.343Z,4.63
2022-08-28T04:15:24.687Z,4.70
2022-08-28T04:16:58.605Z,4.80
2022-08-28T04:18:32.874Z,4.84
2022-08-28T04:20:04.129Z,4.73
2022-08-28T04:21:35.511Z,4.56
2022-08-28T04:23:06.804Z,4.73
2022-08-28T04:24:38.174Z,4.61
2022-08-28T04:26:09.435Z,4.62
2022-08-28T04:27:40.743Z,4.68
2022-08-28T04:29:12.159Z,4.83
2022-08-28T04:30:43.551Z,4.67
2022-08-28T04:32:15.114Z,4.86
2022-08-28T04:33:46.479Z,4.53
2022-08-28T04:35:18.167Z,4.52
2022-08-28T04:36:49.466Z,4.88
2022-08-28T04:38:21.163Z,4.91
2022-08-28T04:39:52.588Z,4.80
2022-08-28T04:41:24.213Z,4.69
2022-08-28T04:42:55.766Z,4.55
2022-08-28T04:44:27.112Z,4.53
2022-08-28T04:45:59.338Z,4.65
2022-08-28T04:47:30.910Z,4.66
2022-08-28T04:49:04.060Z,4.26
2022-08-28T04:50:35.363Z,4.60
2022-08-28T04:52:06.636Z,4.10
2022-08-28T04:53:37.946Z,3.88
2022-08-28T04:55:09.399Z,4.15
2022-08-28T04:56:40.816Z,4.75
2022-08-28T04:58:12.759Z,4.16
2022-08-28T04:59:44.232Z,4.16
2022-08-28T05:01:15.847Z,4.25
2022-08-28T05:02:47.296Z,4.26
2022-08-28T05:04:18.642Z,4.29
2022-08-28T05:05:50.733Z,4.53
2022-08-28T05:07:22.168Z,4.48
2022-08-28T05:08:53.694Z,4.62
2022-08-28T05:10:25.091Z,4.47
2022-08-28T05:11:56.865Z,4.76
2022-08-28T05:13:28.147Z,5.21
2022-08-28T05:14:59.538Z,4.42
2022-08-28T05:16:30.924Z,4.49
2022-08-28T05:18:02.408Z,4.45
2022-08-28T05:19:33.701Z,4.33
2022-08-28T05:21:05.040Z,4.35
2022-08-28T05:22:36.344Z,4.78
2022-08-28T05:24:07.688Z,4.46
2022-08-28T05:25:39.141Z,4.37
2022-08-28T05:27:10.584Z,4.44
2022-08-28T05:28:41.989Z,4.54
2022-08-28T05:30:14.271Z,4.41
2022-08-28T05:31:46.347Z,4.88
2022-08-28T05:33:18.261Z,4.37
2022-08-28T05:34:49.804Z,4.51
2022-08-28T05:36:21.269Z,4.86
2022-08-28T05:37:52.748Z,4.13
2022-08-28T05:39:24.290Z,4.62
2022-08-28T05:40:55.722Z,4.32
2022-08-28T05:42:31.011Z,4.12
2022-08-28T05:44:03.236Z,4.51
2022-08-28T05:45:34.594Z,4.34
2022-08-28T05:47:05.920Z,4.57
2022-08-28T05:48:39.604Z,4.33
2022-08-28T05:50:11.300Z,4.76
2022-08-28T05:51:42.608Z,4.55
2022-08-28T05:53:14.007Z,4.59
2022-08-28T05:54:45.486Z,4.08
2022-08-28T05:56:16.776Z,4.40
2022-08-28T05:57:48.240Z,4.45
2022-08-28T05:59:19.632Z,4.22
2022-08-28T06:02:48.367Z,3.94
2022-08-28T06:04:22.010Z,4.60
2022-08-28T06:05:53.608Z,4.22
2022-08-28T06:07:24.938Z,4.86
2022-08-28T06:08:58.560Z,4.07
2022-08-28T06:10:30.658Z,4.12
2022-08-28T06:12:02.359Z,4.23
2022-08-28T06:13:34.052Z,4.17
2022-08-28T06:15:05.779Z,3.88
2022-08-28T06:16:37.182Z,4.11
2022-08-28T06:18:08.707Z,4.06
2022-08-28T06:19:41.653Z,3.85
2022-08-28T06:21:13.160Z,4.40
2022-08-28T06:22:44.868Z,3.86
2022-08-28T06:24:16.516Z,3.89
2022-08-28T06:25:47.927Z,3.94
2022-08-28T06:27:20.390Z,4.14
2022-08-28T06:28:52.800Z,4.08
2022-08-28T06:30:24.165Z,4.04
2022-08-28T06:31:55.989Z,3.87
2022-08-28T06:33:27.395Z,3.68
2022-08-28T06:35:00.146Z,3.98
2022-08-28T06:36:31.504Z,4.08
2022-08-28T06:38:02.929Z,3.83
2022-08-28T06:39:34.302Z,4.03
2022-08-28T06:41:05.669Z,3.91
2022-08-28T06:42:37.010Z,4.21
2022-08-28T06:44:08.710Z,3.41
2022-08-28T06:45:40.171Z,3.76
2022-08-28T06:47:11.756Z,4.08
2022-08-28T06:48:44.050Z,3.92
2022-08-28T06:50:15.494Z,3.85
2022-08-28T06:52:11.967Z,3.77
2022-08-28T06:53:44.400Z,3.79
2022-08-28T06:55:15.803Z,3.12
2022-08-28T06:56:47.247Z,3.29
2022-08-28T06:58:18.716Z,3.30
2022-08-28T06:59:50.242Z,3.72
2022-08-28T07:01:22.078Z,3.62
2022-08-28T07:02:53.518Z,3.23
2022-08-28T07:04:24.936Z,3.75
2022-08-28T07:05:56.377Z,3.47
2022-08-28T07:07:32.434Z,3.46
2022-08-28T07:09:04.116Z,3.67
2022-08-28T07:10:35.491Z,2.97
2022-08-28T07:12:06.893Z,2.81
2022-08-28T07:13:38.341Z,2.40
2022-08-28T07:15:09.776Z,3.20
2022-08-28T07:16:41.216Z,3.08
2022-08-28T07:18:12.987Z,2.99
2022-08-28T07:20:20.357Z,2.86
2022-08-28T07:21:54.394Z,2.46
2022-08-28T07:23:26.109Z,3.03
2022-08-28T07:24:57.468Z,3.05
2022-08-28T07:26:29.155Z,2.52
2022-08-28T07:28:02.279Z,2.59
2022-08-28T07:29:33.625Z,3.17
2022-08-28T07:31:05.334Z,2.77
2022-08-28T07:32:36.993Z,2.74
2022-08-28T07:34:08.604Z,2.96
2022-08-28T07:35:40.166Z,3.21
2022-08-28T07:37:15.258Z,2.77
2022-08-28T07:38:46.764Z,2.96
2022-08-28T07:40:18.222Z,2.84
2022-08-28T07:41:49.781Z,2.96
2022-08-28T07:43:21.192Z,2.65
2022-08-28T07:44:52.518Z,2.63
2022-08-28T07:46:24.688Z,3.24
2022-08-28T07:47:56.430Z,3.56
2022-08-28T07:49:27.757Z,3.16
2022-08-28T07:50:59.165Z,3.49
2022-08-28T07:52:30.595Z,3.18
2022-08-28T07:54:02.162Z,3.27
2022-08-28T07:55:43.558Z,3.37
2022-08-28T07:57:15.065Z,3.47
2022-08-28T07:58:46.386Z,3.17
2022-08-28T08:00:18.082Z,2.75
2022-08-28T08:01:50.429Z,2.71
2022-08-28T08:03:22.023Z,2.40
2022-08-28T08:04:53.501Z,2.18
2022-08-28T08:06:25.128Z,2.60
2022-08-28T08:07:59.427Z,2.71
2022-08-28T08:09:30.963Z,2.47
2022-08-28T08:11:02.742Z,2.32
2022-08-28T08:12:35.007Z,2.68
2022-08-28T08:14:07.981Z,2.74
2022-08-28T08:15:39.656Z,2.88
2022-08-28T08:17:11.139Z,3.24
2022-08-28T08:18:42.949Z,2.84
2022-08-28T08:20:14.431Z,2.65
2022-08-28T08:21:45.843Z,2.80
2022-08-28T08:23:17.519Z,2.72
2022-08-28T08:24:48.992Z,2.53
2022-08-28T08:26:20.701Z,3.03
2022-08-28T08:27:52.033Z,3.22
2022-08-28T08:29:23.563Z,3.02
2022-08-28T08:30:54.932Z,2.77
2022-08-28T08:32:26.315Z,2.44
2022-08-28T08:33:57.719Z,2.45
2022-08-28T08:35:29.131Z,2.28
2022-08-28T08:37:00.441Z,2.12
2022-08-28T08:38:31.761Z,2.60
2022-08-28T08:40:05.555Z,2.71
2022-08-28T08:41:40.275Z,2.60
2022-08-28T08:43:11.829Z,2.50
2022-08-28T08:44:43.385Z,2.76
2022-08-28T08:46:14.935Z,2.93
2022-08-28T08:47:46.311Z,2.51
2022-08-28T08:49:17.721Z,2.91
2022-08-28T08:50:49.428Z,2.54
2022-08-28T08:52:20.850Z,2.62
2022-08-28T08:53:52.294Z,2.56
2022-08-28T08:55:23.602Z,2.83
2022-08-28T08:56:54.979Z,2.62
2022-08-28T08:58:26.470Z,3.09
2022-08-28T08:59:57.868Z,3.16
2022-08-28T09:01:29.644Z,3.04
2022-08-28T09:03:01.215Z,3.30
2022-08-28T09:04:32.935Z,2.76
2022-08-28T09:06:04.305Z,2.78
2022-08-28T09:07:35.729Z,2.69
2022-08-28T09:09:07.003Z,3.20
2022-08-28T09:10:38.381Z,2.73
2022-08-28T09:12:10.091Z,2.26
2022-08-28T09:13:41.606Z,2.57
2022-08-28T09:15:12.886Z,2.10
2022-08-28T09:16:44.403Z,2.34
2022-08-28T09:18:16.044Z,2.33
2022-08-28T09:19:47.818Z,2.36
2022-08-28T09:21:19.203Z,2.12
2022-08-28T09:22:50.546Z,2.00
2022-08-28T09:24:26.894Z,2.66
2022-08-28T09:25:59.803Z,2.59
2022-08-28T09:27:33.166Z,2.33
2022-08-28T09:29:08.014Z,2.91
2022-08-28T09:30:39.582Z,3.10
2022-08-28T09:32:11.313Z,2.90
2022-08-28T09:33:42.936Z,2.59
2022-08-28T09:35:14.633Z,2.79
2022-08-28T09:36:45.971Z,2.68
2022-08-28T09:38:18.574Z,2.40
2022-08-28T09:39:50.034Z,2.07
2022-08-28T09:41:21.513Z,2.83
2022-08-28T09:42:53.026Z,2.53
2022-08-28T09:44:24.366Z,2.72
2022-08-28T09:45:55.898Z,2.99
2022-08-28T09:47:27.532Z,2.48
2022-08-28T09:48:58.828Z,2.32
2022-08-28T09:50:30.498Z,2.96
2022-08-28T09:52:02.004Z,2.68
2022-08-28T09:53:33.410Z,2.99
2022-08-28T09:55:05.058Z,2.84
2022-08-28T09:56:36.966Z,2.89
2022-08-28T09:58:08.349Z,2.52
2022-08-28T09:59:40.072Z,2.24
2022-08-28T10:01:11.749Z,2.33
2022-08-28T10:02:43.188Z,3.26
2022-08-28T10:04:14.842Z,2.93
2022-08-28T10:05:46.244Z,2.77
2022-08-28T10:07:18.068Z,3.18
2022-08-28T10:08:49.401Z,2.92
2022-08-28T10:10:20.748Z,2.95
2022-08-28T10:11:53.527Z,2.46
2022-08-28T10:13:25.369Z,2.61
2022-08-28T10:14:56.883Z,2.54
2022-08-28T10:16:28.688Z,2.91
2022-08-28T10:18:00.212Z,2.92
2022-08-28T10:19:31.714Z,2.59
2022-08-28T10:21:03.164Z,2.75
2022-08-28T10:22:35.875Z,2.78
2022-08-28T10:24:07.573Z,2.78
2022-08-28T10:25:40.077Z,2.96
2022-08-28T10:27:11.867Z,2.35
2022-08-28T10:28:43.354Z,2.60
2022-08-28T10:30:14.979Z,2.15
2022-08-28T10:31:46.687Z,2.31
2022-08-28T10:33:18.192Z,2.34
2022-08-28T10:34:49.571Z,2.29
2022-08-28T10:36:32.909Z,2.68
2022-08-28T10:38:05.889Z,2.18
2022-08-28T10:39:37.281Z,1.96
2022-08-28T10:41:08.809Z,2.37
2022-08-28T10:42:40.556Z,1.76
2022-08-28T10:44:12.017Z,1.76
2022-08-28T10:45:43.426Z,2.27
2022-08-28T10:47:15.496Z,2.20
2022-08-28T10:48:46.984Z,2.49
2022-08-28T10:50:34.686Z,2.15
2022-08-28T10:52:06.012Z,2.51
2022-08-28T10:53:37.565Z,2.46
2022-08-28T10:55:09.124Z,2.12
2022-08-28T10:56:40.807Z,1.91
2022-08-28T10:58:24.585Z,2.35
2022-08-28T11:00:01.818Z,2.47
2022-08-28T11:01:33.400Z,2.38
2022-08-28T11:03:05.004Z,2.01
2022-08-28T11:04:37.175Z,2.17
2022-08-28T11:06:08.616Z,1.63
2022-08-28T11:07:40.084Z,1.58
2022-08-28T11:09:11.774Z,1.77
2022-08-28T11:10:43.336Z,1.64
2022-08-28T11:12:15.440Z,2.34
2022-08-28T11:13:46.961Z,2.22
2022-08-28T11:15:18.428Z,2.24
2022-08-28T11:17:01.910Z,2.02
2022-08-28T11:18:33.458Z,2.02
2022-08-28T11:20:04.916Z,2.34
2022-08-28T11:21:36.432Z,2.48
2022-08-28T11:23:08.020Z,1.85
2022-08-28T11:24:39.498Z,2.14
2022-08-28T11:26:15.268Z,2.11
2022-08-28T11:27:46.922Z,2.11
2022-08-28T11:29:18.487Z,2.19
2022-08-28T11:30:50.489Z,2.09
2022-08-28T11:32:21.991Z,1.81
2022-08-28T11:33:53.507Z,2.14
2022-08-28T11:35:24.941Z,2.17
2022-08-28T11:36:56.480Z,1.89
2022-08-28T11:38:28.028Z,1.48
2022-08-28T11:39:59.872Z,1.71
2022-08-28T11:41:31.477Z,2.01
2022-08-28T11:43:02.907Z,2.14
2022-08-28T11:44:34.370Z,1.94
2022-08-28T11:46:05.902Z,1.79
2022-08-28T11:47:37.448Z,2.08
2022-08-28T11:49:09.034Z,2.09
2022-08-28T11:50:40.520Z,1.96
2022-08-28T11:52:12.178Z,1.90
2022-08-28T11:53:43.633Z,1.89
2022-08-28T11:55:15.058Z,2.11
2022-08-28T11:56:46.693Z,2.14
2022-08-28T11:58:18.175Z,2.18
2022-08-28T11:59:49.660Z,2.03
2022-08-28T12:01:21.297Z,2.06
2022-08-28T12:02:52.905Z,2.07
2022-08-28T12:04:24.531Z,1.77
2022-08-28T12:05:56.236Z,2.05
2022-08-28T12:07:27.775Z,1.70
2022-08-28T12:08:59.249Z,1.72
2022-08-28T12:10:30.812Z,2.05
2022-08-28T12:12:03.435Z,1.84
2022-08-28T12:13:35.069Z,1.95
2022-08-28T12:15:06.609Z,1.76
2022-08-28T12:16:38.087Z,2.03
2022-08-28T12:18:09.737Z,1.76
2022-08-28T12:19:52.540Z,1.78
2022-08-28T12:21:27.749Z,1.92
2022-08-28T12:22:59.240Z,1.96
2022-08-28T12:24:30.692Z,1.88
2022-08-28T12:26:02.257Z,1.72
2022-08-28T12:27:33.799Z,1.38
2022-08-28T12:29:05.373Z,1.93
2022-08-28T12:30:36.934Z,1.65
2022-08-28T12:32:08.554Z,1.58
2022-08-28T12:33:45.269Z,1.61
2022-08-28T12:35:55.197Z,2.02
2022-08-28T12:37:26.690Z,1.83
2022-08-28T12:38:58.286Z,2.09
2022-08-28T12:40:29.925Z,2.62
2022-08-28T12:42:01.574Z,2.16
2022-08-28T12:43:33.479Z,1.87
2022-08-28T12:45:05.203Z,1.98
2022-08-28T12:46:36.846Z,1.80
2022-08-28T12:48:08.430Z,2.05
2022-08-28T12:49:40.082Z,2.06
2022-08-28T12:51:11.700Z,1.76
2022-08-28T12:52:43.603Z,1.93
2022-08-28T12:54:15.187Z,1.64
2022-08-28T12:55:46.978Z,1.73
2022-08-28T12:57:18.503Z,1.83
2022-08-28T12:58:50.196Z,1.75
2022-08-28T13:00:21.738Z,1.81
2022-08-28T13:01:53.475Z,1.59
2022-08-28T13:03:25.101Z,1.70
2022-08-28T13:04:56.703Z,1.89
2022-08-28T13:06:28.965Z,1.82
2022-08-28T13:08:01.783Z,1.59
2022-08-28T13:09:33.987Z,1.57
2022-08-28T13:11:05.882Z,1.74
2022-08-28T13:12:56.281Z,1.88
2022-08-28T13:14:29.563Z,1.73
2022-08-28T13:16:01.104Z,1.98
2022-08-28T13:17:32.678Z,1.76
2022-08-28T13:19:04.288Z,1.57
2022-08-28T13:20:36.254Z,1.76
2022-08-28T13:22:07.737Z,1.72
2022-08-28T13:23:39.356Z,1.71
2022-08-28T13:25:11.187Z,1.76
2022-08-28T13:26:47.274Z,1.79
2022-08-28T13:28:19.069Z,1.76
2022-08-28T13:29:51.863Z,1.75
2022-08-28T13:31:28.734Z,1.79
2022-08-28T13:33:00.209Z,1.89
2022-08-28T13:34:31.792Z,2.09
2022-08-28T13:36:03.399Z,2.07
2022-08-28T13:37:34.990Z,1.70
2022-08-28T13:39:06.494Z,1.82
2022-08-28T13:40:56.883Z,1.60
2022-08-28T13:42:29.807Z,1.69
2022-08-28T13:44:01.358Z,1.56
2022-08-28T13:45:35.641Z,1.68
2022-08-28T13:47:14.871Z,1.66
2022-08-28T13:48:46.490Z,1.57
2022-08-28T13:50:18.156Z,1.66
2022-08-28T13:51:49.749Z,2.00
2022-08-28T13:53:22.407Z,1.58
2022-08-28T13:54:54.060Z,1.37
2022-08-28T13:56:25.515Z,1.61
2022-08-28T13:57:56.947Z,1.64
2022-08-28T13:59:28.405Z,1.45
2022-08-28T14:01:00.005Z,1.57
2022-08-28T14:02:31.841Z,1.79
2022-08-28T14:04:03.565Z,1.50
2022-08-28T14:05:59.937Z,1.16
2022-08-28T14:07:31.458Z,1.47
2022-08-28T14:09:02.920Z,1.59
2022-08-28T14:10:34.734Z,1.65
2022-08-28T14:12:06.098Z,1.64
2022-08-28T14:13:37.560Z,1.66
2022-08-28T14:15:08.935Z,1.48
2022-08-28T14:16:40.564Z,1.70
2022-08-28T14:18:12.069Z,1.76
2022-08-28T14:19:43.723Z,1.96
2022-08-28T14:21:15.175Z,1.93
2022-08-28T14:22:46.687Z,1.72
2022-08-28T14:24:18.190Z,1.60
2022-08-28T14:25:49.629Z,1.49
2022-08-28T14:27:21.255Z,1.62
2022-08-28T14:28:52.670Z,1.73
2022-08-28T14:30:38.846Z,1.57
2022-08-28T14:32:10.768Z,1.66
2022-08-28T14:33:42.441Z,1.87
2022-08-28T14:35:16.839Z,1.55
2022-08-28T14:36:48.319Z,1.46
2022-08-28T14:38:19.696Z,1.98
2022-08-28T14:39:51.108Z,1.81
2022-08-28T14:41:22.475Z,1.98
2022-08-28T14:42:53.869Z,1.67
2022-08-28T14:44:25.258Z,1.57
2022-08-28T14:45:56.799Z,1.47
2022-08-28T14:47:47.994Z,1.72
2022-08-28T14:49:19.772Z,1.56
2022-08-28T14:50:51.673Z,1.44
2022-08-28T14:52:23.249Z,1.58
2022-08-28T14:53:55.119Z,1.59
2022-08-28T14:55:27.148Z,1.73
2022-08-28T14:57:08.791Z,1.81
2022-08-28T14:58:40.381Z,1.74
2022-08-28T15:00:16.922Z,1.59
2022-08-28T15:01:48.311Z,1.65
2022-08-28T15:03:19.859Z,1.44
2022-08-28T15:04:51.376Z,1.50
2022-08-28T15:06:23.029Z,1.79
2022-08-28T15:07:54.529Z,1.78
2022-08-28T15:09:26.053Z,1.59
2022-08-28T15:10:57.486Z,1.80
2022-08-28T15:12:29.102Z,1.67
2022-08-28T15:14:00.638Z,1.42
2022-08-28T15:15:32.572Z,1.53
2022-08-28T15:17:04.016Z,1.41
2022-08-28T15:18:35.853Z,1.41
2022-08-28T15:20:07.481Z,1.44
2022-08-28T15:21:44.007Z,1.36
2022-08-28T15:23:15.766Z,1.29
2022-08-28T15:24:48.627Z,1.45
2022-08-28T15:26:20.248Z,1.55
2022-08-28T15:27:51.762Z,1.49
2022-08-28T15:29:23.222Z,1.58
2022-08-28T15:30:54.836Z,1.59
2022-08-28T15:32:26.388Z,1.54
2022-08-28T15:33:58.324Z,1.74
2022-08-28T15:35:30.049Z,1.93
2022-08-28T15:37:01.605Z,1.29
2022-08-28T15:38:35.743Z,1.41
2022-08-28T15:40:12.291Z,1.31
2022-08-28T15:41:43.829Z,1.76
2022-08-28T15:43:15.751Z,1.92
2022-08-28T15:44:47.371Z,1.76
2022-08-28T15:46:18.809Z,1.60
2022-08-28T15:47:50.569Z,1.54
2022-08-28T15:49:23.783Z,1.25
2022-08-28T15:50:55.864Z,1.28
2022-08-28T15:52:28.388Z,1.59
2022-08-28T15:53:59.951Z,1.50
2022-08-28T15:55:31.429Z,1.47
2022-08-28T15:57:08.038Z,1.44
2022-08-28T15:58:39.654Z,1.61
2022-08-28T16:00:11.241Z,1.69
2022-08-28T16:01:44.048Z,1.54
2022-08-28T16:03:15.951Z,1.52
2022-08-28T16:04:49.166Z,1.58
2022-08-28T16:06:20.695Z,1.56
2022-08-28T16:07:52.706Z,1.57
2022-08-28T16:09:29.386Z,1.80
2022-08-28T16:11:01.106Z,1.75
2022-08-28T16:12:32.619Z,1.67
2022-08-28T16:14:04.339Z,1.57
2022-08-28T16:15:35.826Z,1.52
2022-08-28T16:17:10.709Z,1.66
2022-08-28T16:18:42.797Z,1.62
2022-08-28T16:20:14.510Z,1.81
2022-08-28T16:21:46.019Z,1.90
2022-08-28T16:23:17.548Z,1.50
2022-08-28T16:24:49.190Z,1.82
2022-08-28T16:26:20.677Z,1.70
2022-08-28T16:27:52.163Z,1.33
2022-08-28T16:29:23.632Z,1.66
2022-08-28T16:31:00.108Z,1.64
2022-08-28T16:32:31.697Z,1.60
2022-08-28T16:34:03.721Z,1.67
2022-08-28T16:35:35.663Z,1.57
2022-08-28T16:37:08.665Z,1.82
2022-08-28T16:38:40.424Z,1.64
2022-08-28T16:40:12.415Z,1.75
2022-08-28T16:41:46.902Z,1.63
2022-08-28T16:43:28.430Z,1.61
2022-08-28T16:45:05.169Z,1.64
2022-08-28T16:46:36.888Z,1.51
2022-08-28T16:48:13.662Z,1.57
2022-08-28T16:49:45.437Z,1.54
2022-08-28T16:51:17.109Z,1.84
2022-08-28T16:52:48.648Z,1.79
2022-08-28T16:54:20.216Z,1.69
2022-08-28T16:55:51.743Z,1.60
2022-08-28T16:57:23.269Z,1.61
2022-08-28T16:58:54.776Z,1.68
2022-08-28T17:00:26.315Z,1.59
2022-08-28T17:01:57.980Z,1.89
2022-08-28T17:03:29.571Z,1.97
2022-08-28T17:05:11.044Z,2.09
2022-08-28T17:06:42.681Z,1.65
2022-08-28T17:08:19.510Z,1.89
2022-08-28T17:09:51.076Z,1.72
2022-08-28T17:11:22.947Z,1.75
2022-08-28T17:12:54.610Z,1.86
2022-08-28T17:14:26.388Z,1.63
2022-08-28T17:15:58.293Z,1.50
2022-08-28T17:17:30.072Z,1.82
2022-08-28T17:19:12.670Z,1.48
2022-08-28T17:20:44.067Z,2.00
2022-08-28T17:22:15.640Z,2.08
2022-08-28T17:23:47.170Z,1.86
2022-08-28T17:25:18.615Z,1.75
2022-08-28T17:26:50.255Z,1.52
2022-08-28T17:28:22.111Z,1.48
2022-08-28T17:29:53.678Z,1.70
2022-08-28T17:31:25.384Z,1.69
2022-08-28T17:32:56.984Z,1.77
2022-08-28T17:34:30.385Z,2.24
2022-08-28T17:36:02.417Z,2.08
2022-08-28T17:37:34.286Z,1.82
2022-08-28T17:39:06.046Z,2.08
2022-08-28T17:40:37.703Z,1.82
2022-08-28T17:42:29.482Z,1.69
2022-08-28T17:44:01.392Z,1.63
2022-08-28T17:45:32.905Z,1.70
2022-08-28T17:47:04.925Z,1.76
2022-08-28T17:48:55.599Z,1.56
2022-08-28T17:50:27.842Z,1.78
2022-08-28T17:51:59.270Z,1.68
2022-08-28T17:53:30.916Z,2.01
2022-08-28T17:57:03.067Z,1.63
2022-08-28T17:58:37.541Z,1.85
2022-08-28T18:00:09.413Z,1.74
2022-08-28T18:01:41.293Z,1.60
2022-08-28T18:03:13.022Z,1.72
2022-08-28T18:04:44.720Z,2.76
2022-08-28T18:06:21.489Z,2.37
2022-08-28T18:07:52.985Z,2.12
2022-08-28T18:09:24.562Z,2.02
2022-08-28T18:10:55.925Z,2.13
2022-08-28T18:12:33.224Z,2.07
2022-08-28T18:14:04.673Z,1.88
2022-08-28T18:15:36.983Z,1.93
2022-08-28T18:17:09.162Z,1.86
2022-08-28T18:18:40.811Z,1.73
2022-08-28T18:20:12.229Z,1.86
2022-08-28T18:21:43.962Z,1.73
2022-08-28T18:23:15.529Z,1.94
2022-08-28T18:24:47.059Z,1.97
2022-08-28T18:26:18.620Z,1.99
2022-08-28T18:27:50.191Z,2.04
2022-08-28T18:29:21.955Z,2.03
2022-08-28T18:30:58.700Z,2.19
2022-08-28T18:32:30.671Z,2.05
2022-08-28T18:34:02.110Z,2.54
2022-08-28T18:35:34.054Z,2.03
2022-08-28T18:37:16.253Z,2.42
2022-08-28T18:38:48.248Z,2.12
2022-08-28T18:40:24.960Z,3.21
2022-08-28T18:41:56.431Z,4.06
2022-08-28T18:43:28.271Z,3.62
2022-08-28T18:44:59.604Z,2.88
2022-08-28T18:46:31.476Z,2.20
2022-08-28T18:48:03.502Z,2.24
2022-08-28T18:49:34.880Z,2.52
2022-08-28T18:51:16.308Z,1.99
2022-08-28T18:52:53.382Z,2.21
2022-08-28T18:54:24.910Z,2.40
2022-08-28T18:55:56.853Z,2.25
2022-08-28T18:57:36.914Z,2.37
2022-08-28T18:59:08.865Z,2.94
2022-08-28T19:00:40.204Z,2.77
2022-08-28T19:02:11.917Z,2.89
2022-08-28T19:03:43.928Z,2.37
2022-08-28T19:05:17.094Z,2.15
2022-08-28T19:06:48.617Z,2.00
2022-08-28T19:08:20.188Z,2.20
2022-08-28T19:10:01.541Z,2.14
2022-08-28T19:11:38.057Z,2.42
2022-08-28T19:13:16.179Z,2.27
2022-08-28T19:14:47.711Z,2.23
2022-08-28T19:16:19.205Z,2.29
2022-08-28T19:17:50.619Z,2.22
2022-08-28T19:21:20.766Z,2.21
2022-08-28T19:22:52.281Z,2.31
2022-08-28T19:24:23.721Z,2.38
2022-08-28T19:25:55.617Z,2.29
2022-08-28T19:27:27.132Z,2.15
2022-08-28T19:28:58.578Z,2.02
2022-08-28T19:30:31.109Z,2.41
2022-08-28T19:32:02.443Z,2.24
2022-08-28T19:33:34.972Z,2.30
2022-08-28T19:35:06.694Z,2.30
2022-08-28T19:36:38.549Z,2.68
2022-08-28T19:38:10.117Z,2.17
2022-08-28T19:39:41.839Z,2.28
2022-08-28T19:41:22.695Z,2.17
2022-08-28T19:42:54.134Z,2.26
2022-08-28T19:44:26.081Z,2.36
2022-08-28T19:47:52.393Z,2.24
2022-08-28T19:49:24.117Z,2.20
2022-08-28T19:50:56.029Z,2.28
2022-08-28T19:52:27.580Z,2.05
2022-08-28T19:53:59.153Z,2.22
2022-08-28T19:55:30.588Z,2.19
2022-08-28T19:57:07.598Z,2.39
2022-08-28T19:58:39.069Z,2.08
2022-08-28T20:00:16.689Z,1.82
2022-08-28T20:01:49.281Z,2.13
2022-08-28T20:03:20.742Z,2.18
2022-08-28T20:04:52.508Z,2.23
2022-08-28T20:06:29.509Z,2.14
2022-08-28T20:08:00.863Z,1.99
2022-08-28T20:09:32.160Z,1.98
2022-08-28T20:11:03.751Z,2.05
2022-08-28T20:12:35.110Z,2.05
2022-08-28T20:14:07.960Z,1.96
2022-08-28T20:15:49.795Z,1.96
2022-08-28T20:17:21.478Z,1.83
2022-08-28T20:18:53.041Z,1.85
2022-08-28T20:20:26.799Z,1.80
2022-08-28T20:22:01.462Z,2.27
2022-08-28T20:23:33.166Z,2.41
2022-08-28T20:25:04.887Z,2.15
2022-08-28T20:26:36.244Z,2.12
2022-08-28T20:28:07.567Z,1.95
2022-08-28T20:29:38.954Z,1.96
2022-08-28T20:31:20.334Z,1.96
2022-08-28T20:32:54.111Z,1.92
2022-08-28T20:34:25.561Z,1.94
2022-08-28T20:35:56.972Z,1.79
2022-08-28T20:37:28.537Z,1.86
2022-08-28T20:39:00.058Z,1.88